createdAt,value
2022-08-25T00:00:25.665Z,9.20
2022-08-25T00:05:32.261Z,10.23
2022-08-25T00:10:37.877Z,9.73
2022-08-25T00:15:39.727Z,10.77
2022-08-25T00:20:48.691Z,10.20
2022-08-25T00:25:50.946Z,10.63
2022-08-25T00:30:52.831Z,11.15
2022-08-25T00:35:56.371Z,10.80
2022-08-25T00:41:07.459Z,11.52
2022-08-25T00:46:10.454Z,11.30
2022-08-25T00:51:16.664Z,11.20
2022-08-25T00:56:18.753Z,11.25
2022-08-25T01:01:23.195Z,11.65
2022-08-25T01:06:25.074Z,11.27
2022-08-25T01:11:27.827Z,11.73
2022-08-25T01:16:29.750Z,12.00
2022-08-25T01:21:37.449Z,12.57
2022-08-25T01:26:39.229Z,13.63
2022-08-25T01:31:42.280Z,12.63
2022-08-25T01:36:44.769Z,12.85
2022-08-25T01:42:18.160Z,13.52
2022-08-25T01:47:20.164Z,13.63
2022-08-25T01:52:28.913Z,13.55
2022-08-25T01:57:31.751Z,14.05
2022-08-25T02:02:33.492Z,14.93
2022-08-25T02:07:36.641Z,14.02
2022-08-25T02:12:40.115Z,14.32
2022-08-25T02:17:41.870Z,14.65
2022-08-25T02:22:51.143Z,13.68
2022-08-25T02:27:58.885Z,14.63
2022-08-25T02:33:00.763Z,14.15
2022-08-25T02:38:02.696Z,14.05
2022-08-25T02:43:05.738Z,14.35
2022-08-25T02:48:07.585Z,13.75
2022-08-25T02:53:09.277Z,14.75
2022-08-25T02:58:10.952Z,15.15
2022-08-25T03:03:12.863Z,14.48
2022-08-25T03:08:15.366Z,14.80
2022-08-25T03:13:17.951Z,15.20
2022-08-25T03:18:19.808Z,15.02
2022-08-25T03:23:21.583Z,15.30
2022-08-25T03:28:28.927Z,14.90
2022-08-25T03:33:32.270Z,15.20
2022-08-25T03:38:34.021Z,15.27
2022-08-25T03:43:35.749Z,14.90
2022-08-25T03:48:37.528Z,16.25
2022-08-25T03:53:39.363Z,15.95
2022-08-25T03:58:41.081Z,16.13
2022-08-25T04:03:42.843Z,16.10
2022-08-25T04:08:44.779Z,15.98
2022-08-25T04:13:47.807Z,14.93
2022-08-25T04:18:50.670Z,16.60
2022-08-25T04:23:54.032Z,16.95
2022-08-25T04:28:58.425Z,15.43
2022-08-25T04:34:03.790Z,17.08
2022-08-25T04:39:06.083Z,16.48
2022-08-25T04:44:07.938Z,16.60
2022-08-25T04:49:10.119Z,17.20
2022-08-25T04:54:16.971Z,16.50
2022-08-25T04:59:19.214Z,16.92
2022-08-25T05:04:28.503Z,17.23
2022-08-25T05:09:32.089Z,17.30
2022-08-25T05:14:34.015Z,16.45
2022-08-25T05:19:36.249Z,20.73
2022-08-25T05:24:38.217Z,19.35
2022-08-25T05:29:39.896Z,18.65
2022-08-25T05:34:41.626Z,17.73
2022-08-25T05:39:43.366Z,17.20
2022-08-25T05:44:45.044Z,17.65
2022-08-25T05:49:46.839Z,17.65
2022-08-25T05:54:48.643Z,17.40
2022-08-25T05:59:50.435Z,16.80
2022-08-25T06:04:52.132Z,17.52
2022-08-25T06:09:53.960Z,17.88
2022-08-25T06:14:55.830Z,18.48
2022-08-25T06:19:57.647Z,17.33
2022-08-25T06:24:59.502Z,17.58
2022-08-25T06:30:04.798Z,17.52
2022-08-25T06:35:12.853Z,17.15
2022-08-25T06:40:16.353Z,17.10
2022-08-25T06:45:18.557Z,17.92
2022-08-25T06:50:20.472Z,17.23
2022-08-25T06:55:22.210Z,18.52
2022-08-25T07:00:30.369Z,19.02
2022-08-25T07:05:43.397Z,17.92
2022-08-25T07:10:48.016Z,18.27
2022-08-25T07:15:55.152Z,19.55
2022-08-25T07:20:58.086Z,16.77
2022-08-25T07:26:36.275Z,15.93
2022-08-25T07:31:35.509Z,15.95
2022-08-25T07:36:37.242Z,15.65
2022-08-25T07:41:42.104Z,14.65
2022-08-25T07:46:43.891Z,13.73
2022-08-25T07:52:05.661Z,12.77
2022-08-25T07:57:09.909Z,12.25
2022-08-25T08:02:18.416Z,11.80
2022-08-25T08:07:42.300Z,11.20
2022-08-25T08:12:45.892Z,11.73
2022-08-25T08:17:47.604Z,11.52
2022-08-25T08:22:49.944Z,11.43
2022-08-25T08:27:51.718Z,12.23
2022-08-25T08:33:09.624Z,11.88
2022-08-25T08:38:17.341Z,11.02
2022-08-25T08:43:21.908Z,10.68
2022-08-25T08:48:43.045Z,11.13
2022-08-25T08:53:57.101Z,11.82
2022-08-25T08:59:22.192Z,11.35
2022-08-25T09:04:46.690Z,11.50
2022-08-25T09:09:49.044Z,11.95
2022-08-25T09:15:13.929Z,11.10
2022-08-25T09:20:40.408Z,11.00
2022-08-25T09:25:53.136Z,11.70
2022-08-25T09:30:59.350Z,10.85
2022-08-25T09:36:01.401Z,10.65
2022-08-25T09:41:08.531Z,11.13
2022-08-25T09:46:30.649Z,11.23
2022-08-25T09:51:42.173Z,10.30
2022-08-25T09:56:56.185Z,9.88
2022-08-25T10:02:00.958Z,9.77
2022-08-25T10:07:25.399Z,10.88
2022-08-25T10:12:42.330Z,11.82
2022-08-25T10:17:45.805Z,12.00
2022-08-25T10:22:50.653Z,11.90
2022-08-25T10:28:15.032Z,11.63
2022-08-25T10:34:03.526Z,10.68
2022-08-25T10:39:05.544Z,11.25
2022-08-25T10:44:58.156Z,10.45
2022-08-25T10:50:23.575Z,10.52
2022-08-25T10:55:49.142Z,10.55
2022-08-25T11:01:04.648Z,10.82
2022-08-25T11:06:13.834Z,11.30
2022-08-25T11:11:35.075Z,10.23
2022-08-25T11:16:48.608Z,10.85
2022-08-25T11:22:21.284Z,10.00
2022-08-25T11:27:30.969Z,10.50
2022-08-25T11:32:35.544Z,9.18
2022-08-25T11:38:08.823Z,9.43
2022-08-25T11:43:54.621Z,9.52
2022-08-25T11:49:13.917Z,10.05
2022-08-25T11:54:45.130Z,8.98
2022-08-25T12:00:21.961Z,9.18
2022-08-25T12:05:24.183Z,9.77
2022-08-25T12:10:26.360Z,9.10
2022-08-25T12:15:42.896Z,9.45
2022-08-25T12:21:12.083Z,8.45
2022-08-25T12:26:46.108Z,9.20
2022-08-25T12:31:59.171Z,8.57
2022-08-25T12:37:18.722Z,8.27
2022-08-25T12:42:44.127Z,8.18
2022-08-25T12:47:49.134Z,8.45
2022-08-25T12:52:52.476Z,8.27
2022-08-25T12:57:58.741Z,8.07
2022-08-25T13:03:12.526Z,8.15
2022-08-25T13:08:38.882Z,7.90
2022-08-25T13:14:15.248Z,7.82
2022-08-25T13:19:19.870Z,7.65
2022-08-25T13:30:03.970Z,7.03
2022-08-25T13:35:20.939Z,7.47
2022-08-25T13:40:32.607Z,7.47
2022-08-25T13:45:41.452Z,6.72
2022-08-25T13:50:43.869Z,7.18
2022-08-25T13:56:01.860Z,7.68
2022-08-25T14:01:23.659Z,6.82
2022-08-25T14:06:33.396Z,7.43
2022-08-25T14:11:49.791Z,7.20
2022-08-25T14:17:04.985Z,7.43
2022-08-25T14:22:18.266Z,6.30
2022-08-25T14:27:20.473Z,6.78
2022-08-25T14:32:22.739Z,7.15
2022-08-25T14:37:25.780Z,6.88
2022-08-25T14:42:27.711Z,6.55
2022-08-25T14:47:31.617Z,6.50
2022-08-25T14:52:33.509Z,6.75
2022-08-25T14:57:35.914Z,6.18
2022-08-25T15:02:41.715Z,6.43
2022-08-25T15:08:02.784Z,7.22
2022-08-25T15:13:06.169Z,7.22
2022-08-25T15:18:08.736Z,6.90
2022-08-25T15:23:11.631Z,6.75
2022-08-25T15:28:17.363Z,6.85
2022-08-25T15:33:19.525Z,6.72
2022-08-25T15:38:21.704Z,6.75
2022-08-25T15:43:23.388Z,6.60
2022-08-25T15:48:27.707Z,6.47
2022-08-25T15:53:29.864Z,6.65
2022-08-25T15:58:32.622Z,6.80
2022-08-25T16:03:35.186Z,7.22
2022-08-25T16:08:38.341Z,7.38
2022-08-25T16:13:40.048Z,7.32
2022-08-25T16:18:45.165Z,6.90
2022-08-25T16:23:47.245Z,7.22
2022-08-25T16:28:51.293Z,6.85
2022-08-25T16:33:56.113Z,7.32
2022-08-25T16:39:01.353Z,8.50
2022-08-25T16:44:07.774Z,8.15
2022-08-25T16:49:14.441Z,8.50
2022-08-25T16:54:36.412Z,9.55
2022-08-25T16:59:38.084Z,8.77
2022-08-25T17:04:40.751Z,7.90
2022-08-25T17:09:42.614Z,7.72
2022-08-25T17:14:44.323Z,7.60
2022-08-25T17:19:49.700Z,7.45
2022-08-25T17:25:00.708Z,7.47
2022-08-25T17:30:04.641Z,7.97
2022-08-25T17:35:07.381Z,7.88
2022-08-25T17:40:10.109Z,8.20
2022-08-25T17:45:12.845Z,8.32
2022-08-25T17:50:14.906Z,8.70
2022-08-25T17:55:22.820Z,9.95
2022-08-25T18:00:24.921Z,8.88
2022-08-25T18:05:27.758Z,9.50
2022-08-25T18:10:29.719Z,9.18
2022-08-25T18:15:31.450Z,9.18
2022-08-25T18:20:33.368Z,9.60
2022-08-25T18:25:35.122Z,8.95
2022-08-25T18:30:38.776Z,8.60
2022-08-25T18:35:40.546Z,9.00
2022-08-25T18:40:43.420Z,9.90
2022-08-25T18:45:47.911Z,9.00
2022-08-25T18:50:51.981Z,10.13
2022-08-25T18:55:54.509Z,9.98
2022-08-25T19:00:56.369Z,8.88
2022-08-25T19:05:58.415Z,9.50
2022-08-25T19:11:00.182Z,9.52
2022-08-25T19:16:20.411Z,8.93
2022-08-25T19:21:23.836Z,8.90
2022-08-25T19:26:26.000Z,8.73
2022-08-25T19:31:33.008Z,9.52
2022-08-25T19:36:35.553Z,9.70
2022-08-25T19:41:37.416Z,9.07
2022-08-25T19:46:43.479Z,9.02
2022-08-25T19:51:50.622Z,8.77
2022-08-25T19:56:54.336Z,8.80
2022-08-25T20:01:57.039Z,8.05
2022-08-25T20:06:59.514Z,7.90
2022-08-25T20:12:01.381Z,8.13
2022-08-25T20:17:14.495Z,8.23
2022-08-25T20:22:31.319Z,7.93
2022-08-25T20:27:39.409Z,8.35
2022-08-25T20:32:41.264Z,8.73
2022-08-25T20:37:44.585Z,8.80
2022-08-25T20:42:46.890Z,9.02
2022-08-25T20:47:49.358Z,9.00
2022-08-25T20:52:52.038Z,9.32
2022-08-25T20:57:53.787Z,8.93
2022-08-25T21:02:56.556Z,9.25
2022-08-25T21:07:58.381Z,9.52
2022-08-25T21:13:00.837Z,10.23
2022-08-25T21:18:04.054Z,9.68
2022-08-25T21:23:08.110Z,9.73
2022-08-25T21:28:10.807Z,8.45
2022-08-25T21:33:12.586Z,9.30
2022-08-25T21:38:15.362Z,9.57
2022-08-25T21:43:18.603Z,8.68
2022-08-25T21:48:20.422Z,9.27
2022-08-25T21:53:23.187Z,9.52
2022-08-25T21:58:25.131Z,8.80
2022-08-25T22:03:26.907Z,9.00
2022-08-25T22:08:30.500Z,9.55
2022-08-25T22:13:33.649Z,9.48
2022-08-25T22:18:35.353Z,8.85
2022-08-25T22:23:40.032Z,9.00
2022-08-25T22:28:46.624Z,9.57
2022-08-25T22:33:49.743Z,9.98
2022-08-25T22:38:53.256Z,9.95
2022-08-25T22:43:56.630Z,9.50
2022-08-25T22:48:59.438Z,9.57
2022-08-25T22:54:02.028Z,10.13
2022-08-25T22:59:08.509Z,10.60
2022-08-25T23:04:10.811Z,10.27
2022-08-25T23:09:12.970Z,9.73
2022-08-25T23:14:15.897Z,10.45
2022-08-25T23:19:18.524Z,10.13
2022-08-25T23:24:26.823Z,10.52
2022-08-25T23:29:38.280Z,10.80
2022-08-25T23:34:42.903Z,11.32
2022-08-25T23:39:50.079Z,11.07
2022-08-25T23:44:52.076Z,9.88
2022-08-25T23:49:53.806Z,11.48
2022-08-25T23:54:55.667Z,10.07
2022-08-25T23:59:57.466Z,9.98
